Aviation Digital Data Service (ADDS)

Output produced by METARs form (1932 UTC 25 March 2017)
found at http://www.aviationweather.gov/adds/metars/
 
NZAA 251900Z AUTO 07009KT 9999 NCD 19/16 Q1014 TEMPO FM1930 5000 SHRA FEW015TCU
TAF COR NZAA 251718Z 2518/2618 06005KT 9999 -SHRA SCT020 BKN030 
     TEMPO 2520/2606 5000 SHRA FEW015TCU 
     BECMG 2521/2523 06015KT 
     TEMPO 2606/2614 5000 RA BKN012 FEW015TCU 
     PROB30 
     TEMPO 2606/2612 3000 TSRA BKN009 FEW015CB 
     FM261400 02005KT 9999 FEW015 SCT025
       
NZCH 251900Z AUTO 05015KT 9999 -RA OVC017/// 13/11 Q1017 TEMPO 4000 RA BKN012
TAF NZCH 251711Z 2518/2618 05015G25KT 9999 -RA FEW012 BKN020 
     TEMPO 2518/2602 4000 RA BKN012 
     BECMG 2604/2606 05015KT 
     BECMG 2608/2610 05005KT 
     FM261800 24010KT 9999 -RA BKN014
       
NZWN 251900Z AUTO 20003KT 8000 -RA BKN010/// BKN090/// 15/14 Q1017 BECMG FM2030 9999 SCT010
TAF AMD NZWN 251845Z 2518/2618 20005KT 9999 -RA SCT010 BKN050 
     TEMPO 2518/2521 4000 SHRA BKN010 
     FM252100 03010KT 9999 -SHRA BKN040